createdAt,value
2018-07-31T00:00:59.598Z,1009.19
2018-07-31T00:01:59.585Z,1009.18
2018-07-31T00:02:59.574Z,1009.18
2018-07-31T00:03:59.577Z,1009.17
2018-07-31T00:04:59.556Z,1009.14
2018-07-31T00:05:59.546Z,1009.13
2018-07-31T00:06:59.537Z,1009.14
2018-07-31T00:07:59.532Z,1009.17
2018-07-31T00:08:59.513Z,1009.15
2018-07-31T00:09:59.543Z,1009.18
2018-07-31T00:10:59.498Z,1009.17
2018-07-31T00:11:59.483Z,1009.17
2018-07-31T00:12:59.481Z,1009.18
2018-07-31T00:13:59.462Z,1009.18
2018-07-31T00:14:59.450Z,1009.17
2018-07-31T00:15:59.443Z,1009.18
2018-07-31T00:16:59.430Z,1009.17
2018-07-31T00:17:59.421Z,1009.16
2018-07-31T00:18:59.421Z,1009.16
2018-07-31T00:19:59.399Z,1009.17
2018-07-31T00:20:59.388Z,1009.18
2018-07-31T00:21:59.381Z,1009.20
2018-07-31T00:22:59.377Z,1009.22
2018-07-31T00:23:59.359Z,1009.17
2018-07-31T00:24:59.352Z,1009.17
2018-07-31T00:26:43.464Z,1009.19
2018-07-31T00:27:43.458Z,1009.18
2018-07-31T00:28:43.449Z,1009.22
2018-07-31T00:29:43.431Z,1009.24
2018-07-31T00:30:43.429Z,1009.24
2018-07-31T00:31:43.416Z,1009.20
2018-07-31T00:32:43.568Z,1009.12
2018-07-31T00:33:43.388Z,1009.17
2018-07-31T00:34:43.387Z,1009.20
2018-07-31T00:35:43.372Z,1009.18
2018-07-31T00:36:43.359Z,1009.20
2018-07-31T00:37:43.350Z,1009.18
2018-07-31T00:38:43.336Z,1009.17
2018-07-31T00:39:43.323Z,1009.15
2018-07-31T00:40:43.314Z,1009.12
2018-07-31T00:41:43.304Z,1009.10
2018-07-31T00:42:43.292Z,1009.14
2018-07-31T00:43:43.286Z,1009.11
2018-07-31T00:44:43.269Z,1009.14
2018-07-31T00:45:43.261Z,1009.10
2018-07-31T00:46:43.277Z,1009.08
2018-07-31T00:47:43.240Z,1009.14
2018-07-31T00:48:43.229Z,1009.13
2018-07-31T00:49:43.217Z,1009.16
2018-07-31T00:50:43.205Z,1009.17
2018-07-31T00:51:43.202Z,1009.15
2018-07-31T00:52:43.183Z,1009.17
2018-07-31T00:53:43.175Z,1009.16
2018-07-31T00:54:43.164Z,1009.14
2018-07-31T00:55:43.151Z,1009.12
2018-07-31T00:56:43.144Z,1009.12
2018-07-31T00:57:43.146Z,1009.11
2018-07-31T00:58:43.131Z,1009.14
2018-07-31T00:59:43.107Z,1009.12
2018-07-31T01:00:43.099Z,1009.14
2018-07-31T01:01:43.089Z,1009.11
2018-07-31T01:02:43.088Z,1009.10
2018-07-31T01:03:43.064Z,1009.12
2018-07-31T01:04:43.055Z,1009.09
2018-07-31T01:05:43.051Z,1009.11
2018-07-31T01:06:43.040Z,1009.09
2018-07-31T01:07:46.660Z,1009.08
2018-07-31T01:08:43.010Z,1009.08
2018-07-31T01:09:46.635Z,1009.10
2018-07-31T01:10:42.999Z,1009.08
2018-07-31T01:12:42.441Z,1009.05
2018-07-31T01:13:42.418Z,1009.09
2018-07-31T01:14:42.406Z,1009.08
2018-07-31T01:15:42.395Z,1009.12
2018-07-31T01:16:42.387Z,1009.10
2018-07-31T01:17:42.372Z,1009.09
2018-07-31T01:18:42.365Z,1009.06
2018-07-31T01:19:42.350Z,1009.09
2018-07-31T01:20:42.341Z,1009.06
2018-07-31T01:21:42.331Z,1009.05
2018-07-31T01:22:42.320Z,1009.10
2018-07-31T01:23:42.309Z,1009.07
2018-07-31T01:24:42.296Z,1009.08
2018-07-31T01:25:42.283Z,1009.08
2018-07-31T01:26:42.273Z,1009.10
2018-07-31T01:27:42.344Z,1009.11
2018-07-31T01:29:15.461Z,1009.09
2018-07-31T01:29:42.240Z,1009.09
2018-07-31T01:30:42.232Z,1009.12
2018-07-31T01:31:42.218Z,1009.11
2018-07-31T01:32:42.208Z,1009.12
2018-07-31T01:33:42.200Z,1009.13
2018-07-31T01:34:42.183Z,1009.14
2018-07-31T01:35:42.172Z,1009.15
2018-07-31T01:36:42.164Z,1009.16
2018-07-31T01:37:42.151Z,1009.14
2018-07-31T01:38:44.762Z,1009.14
2018-07-31T01:39:42.128Z,1009.12
2018-07-31T01:40:42.120Z,1009.15
2018-07-31T01:41:42.106Z,1009.15
2018-07-31T01:42:42.093Z,1009.13
2018-07-31T01:43:42.084Z,1009.12
2018-07-31T01:44:42.071Z,1009.11
2018-07-31T01:45:42.082Z,1009.11
2018-07-31T01:46:42.049Z,1009.18
2018-07-31T01:47:42.041Z,1009.18
2018-07-31T01:48:42.030Z,1009.13
2018-07-31T01:49:42.017Z,1009.18
2018-07-31T01:50:42.008Z,1009.17
2018-07-31T01:51:41.995Z,1009.12
2018-07-31T01:52:41.992Z,1009.10
2018-07-31T01:53:41.971Z,1009.10
2018-07-31T01:54:41.970Z,1009.12
2018-07-31T01:55:41.947Z,1009.08
2018-07-31T01:56:41.938Z,1009.11
2018-07-31T01:57:41.932Z,1009.07
2018-07-31T01:58:41.915Z,1009.04
2018-07-31T01:59:41.944Z,1009.05
2018-07-31T02:00:41.897Z,1009.04
2018-07-31T02:01:41.884Z,1009.02
2018-07-31T02:02:41.870Z,1009.01
2018-07-31T02:03:41.857Z,1008.96
2018-07-31T02:04:41.847Z,1008.96
2018-07-31T02:05:41.839Z,1008.98
2018-07-31T02:06:41.826Z,1008.98
2018-07-31T02:07:41.966Z,1009.02
2018-07-31T02:08:41.832Z,1009.00
2018-07-31T02:09:41.791Z,1009.00
2018-07-31T02:10:41.779Z,1009.01
2018-07-31T02:11:45.023Z,1009.02
2018-07-31T02:12:41.754Z,1009.02
2018-07-31T02:13:41.750Z,1008.99
2018-07-31T02:14:41.732Z,1009.02
2018-07-31T02:15:41.726Z,1009.00
2018-07-31T02:16:44.331Z,1008.98
2018-07-31T02:17:41.706Z,1008.96
2018-07-31T02:18:41.697Z,1008.98
2018-07-31T02:19:41.673Z,1008.95
2018-07-31T02:20:41.662Z,1008.92
2018-07-31T02:21:41.657Z,1008.91
2018-07-31T02:22:41.644Z,1008.93
2018-07-31T02:23:41.779Z,1008.90
2018-07-31T02:24:41.617Z,1008.93
2018-07-31T02:25:41.608Z,1008.89
2018-07-31T02:26:41.627Z,1008.91
2018-07-31T02:27:41.600Z,1008.91
2018-07-31T02:28:41.605Z,1008.91
2018-07-31T02:29:41.563Z,1008.93
2018-07-31T02:30:41.554Z,1008.92
2018-07-31T02:31:41.537Z,1008.90
2018-07-31T02:32:41.524Z,1008.91
2018-07-31T02:33:41.512Z,1008.90
2018-07-31T02:34:41.503Z,1008.90
2018-07-31T02:35:41.490Z,1008.90
2018-07-31T02:36:41.480Z,1008.87
2018-07-31T02:37:41.470Z,1008.91
2018-07-31T02:38:41.467Z,1008.94
2018-07-31T02:39:41.443Z,1008.95
2018-07-31T02:40:41.430Z,1008.95
2018-07-31T02:41:41.425Z,1008.96
2018-07-31T02:42:41.406Z,1008.94
2018-07-31T02:43:41.395Z,1008.91
2018-07-31T02:44:41.385Z,1008.89
2018-07-31T02:45:41.373Z,1008.91
2018-07-31T02:46:41.361Z,1008.93
2018-07-31T02:47:41.435Z,1008.92
2018-07-31T02:48:41.340Z,1008.92
2018-07-31T02:49:41.331Z,1008.92
2018-07-31T02:50:41.316Z,1008.96
2018-07-31T02:51:41.304Z,1008.93
2018-07-31T02:52:41.293Z,1008.93
2018-07-31T02:53:41.289Z,1008.94
2018-07-31T02:54:41.269Z,1008.93
2018-07-31T02:55:41.260Z,1008.94
2018-07-31T02:57:35.389Z,1008.97
2018-07-31T02:58:35.377Z,1008.97
2018-07-31T02:59:35.361Z,1008.94
2018-07-31T03:00:35.362Z,1008.98
2018-07-31T03:01:35.346Z,1008.97
2018-07-31T03:02:35.327Z,1008.95
2018-07-31T03:03:35.338Z,1008.97
2018-07-31T03:04:35.305Z,1008.96
2018-07-31T03:05:35.299Z,1008.96
2018-07-31T03:06:35.281Z,1009.04
2018-07-31T03:07:35.268Z,1009.00
2018-07-31T03:08:35.262Z,1009.05
2018-07-31T03:09:35.248Z,1009.01
2018-07-31T03:10:35.234Z,1009.03
2018-07-31T03:11:35.224Z,1009.04
2018-07-31T03:12:35.212Z,1009.01
2018-07-31T03:13:35.198Z,1009.01
2018-07-31T03:14:35.188Z,1009.00
2018-07-31T03:15:35.172Z,1009.04
2018-07-31T03:16:35.199Z,1009.01
2018-07-31T03:17:35.149Z,1009.01
2018-07-31T03:18:35.145Z,1009.00
2018-07-31T03:19:35.164Z,1009.00
2018-07-31T03:20:35.124Z,1009.03
2018-07-31T03:21:35.111Z,1009.07
2018-07-31T03:22:35.097Z,1009.08
2018-07-31T03:23:35.090Z,1009.08
2018-07-31T03:24:35.069Z,1009.06
2018-07-31T03:25:35.059Z,1009.06
2018-07-31T03:26:35.046Z,1009.10
2018-07-31T03:27:35.036Z,1009.08
2018-07-31T03:28:35.021Z,1009.13
2018-07-31T03:29:35.016Z,1009.18
2018-07-31T03:30:35.008Z,1009.23
2018-07-31T03:31:34.986Z,1009.21
2018-07-31T03:33:08.186Z,1009.18
2018-07-31T03:33:34.960Z,1009.24
2018-07-31T03:34:34.949Z,1009.23
2018-07-31T03:35:34.938Z,1009.25
2018-07-31T03:36:34.926Z,1009.23
2018-07-31T03:37:34.915Z,1009.23
2018-07-31T03:38:34.902Z,1009.24
2018-07-31T03:39:34.888Z,1009.23
2018-07-31T03:40:35.047Z,1009.26
2018-07-31T03:42:08.075Z,1009.28
2018-07-31T03:42:38.284Z,1009.26
2018-07-31T03:43:34.910Z,1009.27
2018-07-31T03:44:34.834Z,1009.25
2018-07-31T03:45:34.821Z,1009.27
2018-07-31T03:46:34.807Z,1009.24
2018-07-31T03:47:34.795Z,1009.22
2018-07-31T03:48:34.785Z,1009.25
2018-07-31T03:49:34.769Z,1009.25
2018-07-31T03:50:34.756Z,1009.22
2018-07-31T03:51:34.744Z,1009.23
2018-07-31T03:52:34.733Z,1009.22
2018-07-31T03:53:34.724Z,1009.20
2018-07-31T03:54:34.713Z,1009.20
2018-07-31T03:55:34.739Z,1009.23
2018-07-31T03:56:34.803Z,1009.27
2018-07-31T03:57:34.673Z,1009.29
2018-07-31T03:58:34.658Z,1009.28
2018-07-31T04:00:07.857Z,1009.30
2018-07-31T04:00:34.631Z,1009.34
2018-07-31T04:01:34.624Z,1009.39
2018-07-31T04:02:34.611Z,1009.41
2018-07-31T04:03:34.602Z,1009.39
2018-07-31T04:04:34.600Z,1009.38
2018-07-31T04:05:34.643Z,1009.44
2018-07-31T04:06:34.564Z,1009.43
2018-07-31T04:07:34.552Z,1009.45
2018-07-31T04:08:34.541Z,1009.48
2018-07-31T04:09:34.525Z,1009.47
2018-07-31T04:10:34.512Z,1009.50
2018-07-31T04:11:34.509Z,1009.51
2018-07-31T04:12:34.517Z,1009.49
2018-07-31T04:13:34.481Z,1009.50
2018-07-31T04:14:34.466Z,1009.46
2018-07-31T04:15:34.459Z,1009.45
2018-07-31T04:16:34.443Z,1009.47
2018-07-31T04:17:34.430Z,1009.47
2018-07-31T04:18:34.437Z,1009.42
2018-07-31T04:19:34.406Z,1009.45
2018-07-31T04:20:34.396Z,1009.42
2018-07-31T04:21:34.379Z,1009.45
2018-07-31T04:22:34.369Z,1009.46
2018-07-31T04:23:34.356Z,1009.42
2018-07-31T04:24:34.352Z,1009.46
2018-07-31T04:25:34.335Z,1009.48
2018-07-31T04:26:34.322Z,1009.44
2018-07-31T04:27:34.309Z,1009.50
2018-07-31T04:28:34.299Z,1009.52
2018-07-31T04:29:34.283Z,1009.51
2018-07-31T04:30:34.274Z,1009.48
2018-07-31T04:31:34.261Z,1009.49
2018-07-31T04:32:34.259Z,1009.49
2018-07-31T04:33:34.236Z,1009.50
2018-07-31T04:34:34.228Z,1009.50
2018-07-31T04:35:34.215Z,1009.46
2018-07-31T04:36:34.221Z,1009.52
2018-07-31T04:37:34.188Z,1009.49
2018-07-31T04:38:34.177Z,1009.50
2018-07-31T04:39:34.169Z,1009.51
2018-07-31T04:40:34.153Z,1009.50
2018-07-31T04:41:34.142Z,1009.47
2018-07-31T04:42:34.130Z,1009.47
2018-07-31T04:43:34.118Z,1009.52
2018-07-31T04:44:34.110Z,1009.53
2018-07-31T04:45:34.092Z,1009.57
2018-07-31T04:46:34.079Z,1009.57
2018-07-31T04:47:34.070Z,1009.59
2018-07-31T04:48:34.056Z,1009.61
2018-07-31T04:49:34.046Z,1009.59
2018-07-31T04:50:34.036Z,1009.62
2018-07-31T04:51:34.030Z,1009.64
2018-07-31T04:52:34.139Z,1009.62
2018-07-31T04:53:33.997Z,1009.61
2018-07-31T04:54:33.986Z,1009.61
2018-07-31T04:55:33.986Z,1009.62
2018-07-31T04:56:33.965Z,1009.65
2018-07-31T04:57:33.957Z,1009.65
2018-07-31T04:58:33.938Z,1009.62
2018-07-31T04:59:33.927Z,1009.59
2018-07-31T05:00:33.914Z,1009.55
2018-07-31T05:01:33.903Z,1009.52
2018-07-31T05:02:33.894Z,1009.49
2018-07-31T05:03:33.879Z,1009.52
2018-07-31T05:04:33.874Z,1009.52
2018-07-31T05:05:33.860Z,1009.56
2018-07-31T05:06:33.844Z,1009.57
2018-07-31T05:07:33.834Z,1009.59
2018-07-31T05:08:33.930Z,1009.58
2018-07-31T05:09:33.811Z,1009.61
2018-07-31T05:10:33.796Z,1009.63
2018-07-31T05:11:33.784Z,1009.63
2018-07-31T05:12:33.783Z,1009.62
2018-07-31T05:13:33.774Z,1009.67
2018-07-31T05:14:33.751Z,1009.66
2018-07-31T05:15:33.741Z,1009.71
2018-07-31T05:16:33.726Z,1009.72
2018-07-31T05:17:33.717Z,1009.73
2018-07-31T05:18:33.703Z,1009.76
2018-07-31T05:19:33.743Z,1009.76
2018-07-31T05:20:33.680Z,1009.77
2018-07-31T05:21:33.670Z,1009.81
2018-07-31T05:22:33.657Z,1009.75
2018-07-31T05:23:33.645Z,1009.79
2018-07-31T05:24:33.633Z,1009.79
2018-07-31T05:25:33.623Z,1009.78
2018-07-31T05:26:33.620Z,1009.77
2018-07-31T05:27:33.598Z,1009.78
2018-07-31T05:28:33.592Z,1009.81
2018-07-31T05:29:33.577Z,1009.77
2018-07-31T05:30:33.567Z,1009.75
2018-07-31T05:31:33.556Z,1009.73
2018-07-31T05:32:33.573Z,1009.74
2018-07-31T05:33:33.535Z,1009.68
2018-07-31T05:34:33.520Z,1009.76
2018-07-31T05:35:33.562Z,1009.77
2018-07-31T05:36:33.501Z,1009.76
2018-07-31T05:37:33.486Z,1009.80
2018-07-31T05:38:33.476Z,1009.99
2018-07-31T05:39:33.500Z,1010.30
2018-07-31T05:40:33.453Z,1010.40
2018-07-31T05:41:33.443Z,1010.46
2018-07-31T05:42:33.449Z,1010.52
2018-07-31T05:43:33.419Z,1010.54
2018-07-31T05:44:33.410Z,1010.58
2018-07-31T05:45:33.400Z,1010.69
2018-07-31T05:46:33.393Z,1010.65
2018-07-31T05:47:33.388Z,1010.64
2018-07-31T05:48:33.514Z,1010.35
2018-07-31T05:49:33.370Z,1010.54
2018-07-31T05:50:33.352Z,1010.46
2018-07-31T05:51:33.388Z,1010.49
2018-07-31T05:52:33.333Z,1010.54
2018-07-31T05:53:33.326Z,1010.48
2018-07-31T05:54:33.320Z,1010.52
2018-07-31T05:55:33.309Z,1010.48
2018-07-31T05:56:33.301Z,1010.50
2018-07-31T05:57:33.378Z,1010.57
2018-07-31T05:58:33.288Z,1010.46
2018-07-31T05:59:33.281Z,1010.58
2018-07-31T06:00:33.271Z,1010.60
2018-07-31T06:01:33.268Z,1010.60
2018-07-31T06:02:33.276Z,1010.73
2018-07-31T06:03:33.302Z,1010.80
2018-07-31T06:04:33.310Z,1010.79
2018-07-31T06:05:33.240Z,1010.78
2018-07-31T06:06:33.254Z,1010.90
2018-07-31T06:07:33.228Z,1011.19
2018-07-31T06:08:33.233Z,1011.45
2018-07-31T06:09:33.384Z,1011.51
2018-07-31T06:10:33.213Z,1011.53
2018-07-31T06:11:33.610Z,1011.48
2018-07-31T06:12:33.214Z,1011.48
2018-07-31T06:13:33.197Z,1011.75
2018-07-31T06:14:33.206Z,1011.68
2018-07-31T06:15:33.197Z,1011.57
2018-07-31T06:16:33.182Z,1011.39
2018-07-31T06:17:33.181Z,1011.28
2018-07-31T06:18:33.175Z,1011.03
2018-07-31T06:19:33.176Z,1010.94
2018-07-31T06:20:33.172Z,1010.97
2018-07-31T06:21:33.165Z,1010.93
2018-07-31T06:22:33.280Z,1010.93
2018-07-31T06:23:33.160Z,1010.92
2018-07-31T06:24:33.160Z,1010.87
2018-07-31T06:25:33.244Z,1010.81
2018-07-31T06:26:33.157Z,1010.77
2018-07-31T06:27:33.156Z,1010.73
2018-07-31T06:28:33.147Z,1010.79
2018-07-31T06:29:33.163Z,1010.78
2018-07-31T06:30:33.144Z,1010.71
2018-07-31T06:31:33.140Z,1010.68
2018-07-31T06:32:33.138Z,1010.70
2018-07-31T06:33:33.138Z,1010.73
2018-07-31T06:34:33.135Z,1010.69
2018-07-31T06:35:33.140Z,1010.75
2018-07-31T06:36:33.141Z,1010.75
2018-07-31T06:37:33.133Z,1010.69
2018-07-31T06:38:33.133Z,1010.80
2018-07-31T06:39:33.131Z,1010.72
2018-07-31T06:40:33.189Z,1010.82
2018-07-31T06:41:33.136Z,1010.82
2018-07-31T06:42:33.128Z,1010.82
2018-07-31T06:43:33.211Z,1010.77
2018-07-31T06:44:33.125Z,1010.60
2018-07-31T06:45:33.125Z,1010.57
2018-07-31T06:46:33.125Z,1010.62
2018-07-31T06:47:33.123Z,1010.62
2018-07-31T06:48:33.123Z,1010.74
2018-07-31T06:49:33.126Z,1010.84
2018-07-31T06:50:33.125Z,1010.59
2018-07-31T06:51:33.205Z,1010.55
2018-07-31T06:52:33.122Z,1010.57
2018-07-31T06:53:33.121Z,1010.57
2018-07-31T06:54:33.122Z,1010.61
2018-07-31T06:55:33.119Z,1010.60
2018-07-31T06:56:33.124Z,1010.59
2018-07-31T06:57:33.122Z,1010.66
2018-07-31T06:58:33.120Z,1010.60
2018-07-31T06:59:33.120Z,1010.62
2018-07-31T07:00:33.120Z,1010.65
2018-07-31T07:01:33.120Z,1010.61
2018-07-31T07:02:33.115Z,1010.64
2018-07-31T07:03:33.124Z,1010.61
2018-07-31T07:04:33.118Z,1010.60
2018-07-31T07:05:33.113Z,1010.62
2018-07-31T07:06:33.112Z,1010.62
2018-07-31T07:07:33.112Z,1010.67
2018-07-31T07:08:33.109Z,1010.63
2018-07-31T07:09:33.110Z,1010.60
2018-07-31T07:10:33.109Z,1010.61
2018-07-31T07:11:33.108Z,1010.59
2018-07-31T07:12:33.143Z,1010.54
2018-07-31T07:13:33.110Z,1010.54
2018-07-31T07:14:33.101Z,1010.54
2018-07-31T07:15:33.145Z,1010.57
2018-07-31T07:16:33.101Z,1010.58
2018-07-31T07:17:33.093Z,1010.67
2018-07-31T07:18:33.096Z,1010.64
2018-07-31T07:19:33.089Z,1010.71
2018-07-31T07:20:33.087Z,1010.57
2018-07-31T07:21:33.084Z,1010.59
2018-07-31T07:22:33.095Z,1010.60
2018-07-31T07:23:33.087Z,1010.78
2018-07-31T07:24:33.076Z,1010.87
2018-07-31T07:25:33.076Z,1010.70
2018-07-31T07:26:33.078Z,1010.68
2018-07-31T07:27:33.071Z,1010.67
2018-07-31T07:28:33.067Z,1010.63
2018-07-31T07:29:33.065Z,1010.59
2018-07-31T07:30:33.063Z,1010.60
2018-07-31T07:31:33.060Z,1010.55
2018-07-31T07:32:33.065Z,1010.54
2018-07-31T07:33:33.096Z,1010.64
2018-07-31T07:34:33.057Z,1010.63
2018-07-31T07:35:33.246Z,1010.65
2018-07-31T07:36:33.045Z,1010.65
2018-07-31T07:37:33.043Z,1010.61
2018-07-31T07:38:33.096Z,1010.60
2018-07-31T07:39:33.040Z,1010.61
2018-07-31T07:40:33.036Z,1010.59
2018-07-31T07:41:33.042Z,1010.56
2018-07-31T07:42:33.027Z,1010.61
2018-07-31T07:43:33.026Z,1010.54
2018-07-31T07:44:33.034Z,1010.58
2018-07-31T07:45:33.017Z,1010.59
2018-07-31T07:46:33.014Z,1010.57
2018-07-31T07:47:33.007Z,1010.55
2018-07-31T07:48:33.042Z,1010.53
2018-07-31T07:49:33.011Z,1010.56
2018-07-31T07:50:33.004Z,1010.55
2018-07-31T07:51:33.000Z,1010.51
2018-07-31T07:52:32.988Z,1010.47
2018-07-31T07:53:32.987Z,1010.44
2018-07-31T07:54:32.983Z,1010.45
2018-07-31T07:55:32.978Z,1010.45
2018-07-31T07:56:32.978Z,1010.47
2018-07-31T07:57:32.972Z,1010.47
2018-07-31T07:58:32.975Z,1010.46
2018-07-31T07:59:32.963Z,1010.44
2018-07-31T08:00:32.969Z,1010.44
2018-07-31T08:01:32.958Z,1010.45
2018-07-31T08:02:32.951Z,1010.46
2018-07-31T08:03:32.947Z,1010.44
2018-07-31T08:04:32.945Z,1010.42
2018-07-31T08:05:32.942Z,1010.42
2018-07-31T08:06:32.941Z,1010.42
2018-07-31T08:07:32.932Z,1010.46
2018-07-31T08:08:33.243Z,1010.39
2018-07-31T08:09:33.012Z,1010.42
2018-07-31T08:10:32.920Z,1010.38
2018-07-31T08:11:32.913Z,1010.38
2018-07-31T08:12:32.969Z,1010.36
2018-07-31T08:13:32.904Z,1010.40
2018-07-31T08:14:32.900Z,1010.40
2018-07-31T08:15:32.896Z,1010.40
2018-07-31T08:16:32.890Z,1010.44
2018-07-31T08:17:32.897Z,1010.39
2018-07-31T08:18:32.882Z,1010.47
2018-07-31T08:19:32.886Z,1010.43
2018-07-31T08:20:32.880Z,1010.44
2018-07-31T08:21:32.870Z,1010.47
2018-07-31T08:22:32.917Z,1010.42
2018-07-31T08:23:32.860Z,1010.45
2018-07-31T08:24:32.857Z,1010.46
2018-07-31T08:25:32.898Z,1010.44
2018-07-31T08:26:32.903Z,1010.45
2018-07-31T08:27:32.842Z,1010.47
2018-07-31T08:28:32.839Z,1010.48
2018-07-31T08:30:32.828Z,1010.44
2018-07-31T08:31:32.829Z,1010.45
2018-07-31T08:32:32.817Z,1010.47
2018-07-31T08:33:32.864Z,1010.41
2018-07-31T08:34:32.824Z,1010.42
2018-07-31T08:35:32.800Z,1010.49
2018-07-31T08:36:32.800Z,1010.50
2018-07-31T08:37:32.791Z,1010.52
2018-07-31T08:38:32.787Z,1010.53
2018-07-31T08:39:32.788Z,1010.47
2018-07-31T08:40:32.779Z,1010.51
2018-07-31T08:41:32.778Z,1010.46
2018-07-31T08:42:32.767Z,1010.41
2018-07-31T08:43:32.888Z,1010.43
2018-07-31T08:44:32.756Z,1010.43
2018-07-31T08:45:32.749Z,1010.44
2018-07-31T08:46:32.752Z,1010.49
2018-07-31T08:47:32.739Z,1010.48
2018-07-31T08:48:32.735Z,1010.51
2018-07-31T08:49:32.728Z,1010.48
2018-07-31T08:50:32.725Z,1010.49
2018-07-31T08:51:32.719Z,1010.51
2018-07-31T08:52:32.715Z,1010.51
2018-07-31T08:53:32.707Z,1010.50
2018-07-31T08:54:32.704Z,1010.49
2018-07-31T08:55:32.701Z,1010.43
2018-07-31T08:56:32.705Z,1010.43
2018-07-31T08:57:32.687Z,1010.39
2018-07-31T08:58:32.685Z,1010.39
2018-07-31T08:59:32.757Z,1010.40
2018-07-31T09:00:32.669Z,1010.41
2018-07-31T09:01:32.667Z,1010.37
2018-07-31T09:02:32.670Z,1010.41
2018-07-31T09:03:32.656Z,1010.43
2018-07-31T09:04:32.653Z,1010.43
2018-07-31T09:05:32.645Z,1010.43
2018-07-31T09:06:32.643Z,1010.42
2018-07-31T09:07:32.640Z,1010.46
2018-07-31T09:08:32.701Z,1010.48
2018-07-31T09:09:32.623Z,1010.45
2018-07-31T09:10:32.699Z,1010.47
2018-07-31T09:11:32.614Z,1010.53
2018-07-31T09:12:32.615Z,1010.56
2018-07-31T09:13:32.605Z,1010.60
2018-07-31T09:14:32.602Z,1010.60
2018-07-31T09:15:32.693Z,1010.66
2018-07-31T09:16:32.587Z,1010.63
2018-07-31T09:17:32.621Z,1010.64
2018-07-31T09:18:32.577Z,1010.60
2018-07-31T09:19:32.579Z,1010.64
2018-07-31T09:20:32.568Z,1010.59
2018-07-31T09:21:32.564Z,1010.60
2018-07-31T09:22:32.560Z,1010.60
2018-07-31T09:23:32.558Z,1010.61
2018-07-31T09:24:32.681Z,1010.61
2018-07-31T09:25:32.555Z,1010.65
2018-07-31T09:26:32.552Z,1010.62
2018-07-31T09:27:32.541Z,1010.68
2018-07-31T09:28:32.534Z,1010.69
2018-07-31T09:29:32.533Z,1010.70
2018-07-31T09:30:32.544Z,1010.75
2018-07-31T09:31:32.528Z,1010.79
2018-07-31T09:32:32.523Z,1010.78
2018-07-31T09:33:32.635Z,1010.81
2018-07-31T09:34:32.518Z,1010.82
2018-07-31T09:35:32.513Z,1010.78
2018-07-31T09:36:32.535Z,1010.82
2018-07-31T09:37:32.503Z,1010.79
2018-07-31T09:38:32.505Z,1010.75
2018-07-31T09:39:32.497Z,1010.70
2018-07-31T09:40:32.496Z,1010.67
2018-07-31T09:41:32.489Z,1010.69
2018-07-31T09:42:32.492Z,1010.69
2018-07-31T09:43:32.481Z,1010.68
2018-07-31T09:44:32.487Z,1010.70
2018-07-31T09:45:32.474Z,1010.74
2018-07-31T09:46:32.606Z,1010.80
2018-07-31T09:47:32.469Z,1010.71
2018-07-31T09:48:32.499Z,1010.68
2018-07-31T09:49:32.460Z,1010.75
2018-07-31T09:50:32.466Z,1010.68
2018-07-31T09:51:32.459Z,1010.64
2018-07-31T09:52:32.462Z,1010.63
2018-07-31T09:53:32.454Z,1010.66
2018-07-31T09:54:32.459Z,1010.68
2018-07-31T09:55:32.447Z,1010.76
2018-07-31T09:56:32.454Z,1010.73
2018-07-31T09:57:32.443Z,1010.64
2018-07-31T09:58:32.442Z,1010.66
2018-07-31T09:59:32.505Z,1010.68
2018-07-31T10:00:32.438Z,1010.69
2018-07-31T10:01:32.486Z,1010.73
2018-07-31T10:02:32.483Z,1010.71
2018-07-31T10:03:32.433Z,1010.73
2018-07-31T10:04:32.429Z,1010.92
2018-07-31T10:05:32.456Z,1010.87
2018-07-31T10:06:32.431Z,1010.81
2018-07-31T10:07:32.436Z,1010.92
2018-07-31T10:08:32.431Z,1010.92
2018-07-31T10:09:32.424Z,1010.89
2018-07-31T10:10:32.439Z,1010.82
2018-07-31T10:11:32.426Z,1010.81
2018-07-31T10:12:32.524Z,1010.76
2018-07-31T10:13:32.424Z,1010.64
2018-07-31T10:14:32.437Z,1010.72
2018-07-31T10:15:32.472Z,1010.64
2018-07-31T10:16:32.456Z,1010.66
2018-07-31T10:17:32.435Z,1010.64
2018-07-31T10:18:32.438Z,1010.72
2018-07-31T10:19:32.441Z,1010.51
2018-07-31T10:20:32.456Z,1010.57
2018-07-31T10:21:32.457Z,1010.59
2018-07-31T10:22:32.469Z,1010.64
2018-07-31T10:23:32.453Z,1010.62
2018-07-31T10:24:32.509Z,1010.67
2018-07-31T10:25:32.466Z,1010.63
2018-07-31T10:26:32.457Z,1010.68
2018-07-31T10:27:32.461Z,1010.67
2018-07-31T10:28:32.463Z,1010.79
2018-07-31T10:29:32.464Z,1010.79
2018-07-31T10:30:32.688Z,1010.77
2018-07-31T10:31:32.466Z,1010.69
2018-07-31T10:32:32.467Z,1010.65
2018-07-31T10:33:32.470Z,1010.67
2018-07-31T10:34:32.484Z,1010.77
2018-07-31T10:35:32.482Z,1010.84
2018-07-31T10:36:32.477Z,1010.79
2018-07-31T10:37:32.522Z,1010.74
2018-07-31T10:38:32.481Z,1010.70
2018-07-31T10:39:32.482Z,1010.71
2018-07-31T10:40:32.483Z,1010.69
2018-07-31T10:41:32.491Z,1010.65
2018-07-31T10:42:32.490Z,1010.66
2018-07-31T10:43:32.633Z,1010.62
2018-07-31T10:44:32.509Z,1010.64
2018-07-31T10:45:32.501Z,1010.61
2018-07-31T10:46:32.502Z,1010.67
2018-07-31T10:47:32.506Z,1010.72
2018-07-31T10:48:32.508Z,1010.76
2018-07-31T10:49:32.511Z,1010.76
2018-07-31T10:50:32.542Z,1010.83
2018-07-31T10:51:32.521Z,1010.85
2018-07-31T10:52:32.534Z,1010.80
2018-07-31T10:53:32.530Z,1010.74
2018-07-31T10:54:32.525Z,1010.78
2018-07-31T10:55:32.546Z,1010.82
2018-07-31T10:56:32.593Z,1010.82
2018-07-31T10:57:32.533Z,1010.91
2018-07-31T10:58:32.638Z,1010.91
2018-07-31T10:59:32.572Z,1010.91
2018-07-31T11:00:32.534Z,1010.94
2018-07-31T11:01:35.151Z,1010.99
2018-07-31T11:02:32.532Z,1010.94
2018-07-31T11:03:32.534Z,1010.91
2018-07-31T11:05:17.488Z,1010.88
2018-07-31T11:06:17.496Z,1010.87
2018-07-31T11:07:17.489Z,1010.89
2018-07-31T11:08:17.488Z,1010.90
2018-07-31T11:09:17.489Z,1010.92
2018-07-31T11:10:17.497Z,1010.95
2018-07-31T11:11:17.488Z,1010.97
2018-07-31T11:12:17.488Z,1010.94
2018-07-31T11:13:17.545Z,1010.88
2018-07-31T11:14:17.490Z,1010.87
2018-07-31T11:15:17.588Z,1010.70
2018-07-31T11:16:17.489Z,1010.72
2018-07-31T11:17:17.498Z,1010.88
2018-07-31T11:18:17.490Z,1010.83
2018-07-31T11:19:17.495Z,1010.61
2018-07-31T11:20:17.503Z,1010.65
2018-07-31T11:21:17.510Z,1010.83
2018-07-31T11:22:17.495Z,1010.60
2018-07-31T11:23:17.498Z,1010.69
2018-07-31T11:24:17.508Z,1010.67
2018-07-31T11:25:17.501Z,1010.84
2018-07-31T11:26:17.516Z,1010.84
2018-07-31T11:27:17.509Z,1010.92
2018-07-31T11:28:17.583Z,1010.90
2018-07-31T11:29:17.524Z,1010.95
2018-07-31T11:30:17.519Z,1010.90
2018-07-31T11:31:17.519Z,1011.01
2018-07-31T11:32:17.523Z,1011.06
2018-07-31T11:33:17.525Z,1011.13
2018-07-31T11:34:17.527Z,1011.16
2018-07-31T11:35:17.538Z,1011.21
2018-07-31T11:36:17.544Z,1010.85
2018-07-31T11:37:17.535Z,1010.75
2018-07-31T11:38:17.551Z,1010.80
2018-07-31T11:39:17.544Z,1010.85
2018-07-31T11:40:17.545Z,1010.79
2018-07-31T11:41:17.563Z,1011.35
2018-07-31T11:42:17.549Z,1011.18
2018-07-31T11:43:17.570Z,1011.43
2018-07-31T11:44:17.555Z,1011.38
2018-07-31T11:45:17.565Z,1011.45
2018-07-31T11:46:17.614Z,1011.47
2018-07-31T11:47:17.564Z,1011.39
2018-07-31T11:48:17.568Z,1011.36
2018-07-31T11:49:17.573Z,1011.41
2018-07-31T11:50:17.578Z,1010.72
2018-07-31T11:51:17.574Z,1011.26
2018-07-31T11:52:17.580Z,1010.71
2018-07-31T11:53:17.580Z,1010.77
2018-07-31T11:54:17.583Z,1010.78
2018-07-31T11:55:17.586Z,1010.72
2018-07-31T11:56:17.744Z,1010.75
2018-07-31T11:57:17.590Z,1010.79
2018-07-31T11:58:17.605Z,1010.65
2018-07-31T11:59:17.595Z,1010.70
2018-07-31T12:00:17.602Z,1010.67
2018-07-31T12:01:17.600Z,1010.71
2018-07-31T12:02:17.610Z,1010.64
2018-07-31T12:03:17.610Z,1010.61
2018-07-31T12:04:17.623Z,1010.63
2018-07-31T12:05:17.611Z,1010.61
2018-07-31T12:06:17.667Z,1010.65
2018-07-31T12:07:17.605Z,1010.64
2018-07-31T12:08:17.606Z,1010.69
2018-07-31T12:09:17.653Z,1010.69
2018-07-31T12:10:17.605Z,1010.64